Time;durP1;ratioP1;P1;durP2;ratioP2;P2;SDS_P1;SDS_P2;PMS_P1;PMS_P2;Temp;Humidity;BMP_temperature;BMP_pressure;BME280_temperature;BME280_humidity;BME280_pressure;Samples;Min_cycle;Max_cycle;Signal;HPM_P1;HPM_P2
2021/07/23 00:00:13;;;;;;;;;17.25;16.50;;;;;23.53;51.71;101650.16;4995529;28;45299;-80
2021/07/23 00:02:39;;;;;;;;;14.75;14.00;;;;;23.51;51.93;101646.72;5001943;28;45570;-80
2021/07/23 00:05:05;;;;;;;;;19.50;18.25;;;;;23.49;51.79;101638.78;5001964;28;45400;-80
2021/07/23 00:07:30;;;;;;;;;16.75;15.50;;;;;23.48;52.24;101641.56;4984657;28;48449;-85
2021/07/23 00:09:56;;;;;;;;;22.25;18.50;;;;;23.44;52.46;101640.94;5002499;28;45243;-86
2021/07/23 00:12:21;;;;;;;;;16.25;14.00;;;;;23.37;51.86;101632.47;5002335;28;45796;-86
2021/07/23 00:14:46;;;;;;;;;19.00;16.25;;;;;23.38;52.45;101646.75;5001783;28;45416;-89
2021/07/23 00:17:12;;;;;;;;;20.75;18.75;;;;;23.32;52.91;101639.16;5001720;28;45613;-78
2021/07/23 00:19:37;;;;;;;;;16.00;13.00;;;;;23.29;52.54;101640.22;5002063;28;45209;-81
2021/07/23 00:22:03;;;;;;;;;18.00;15.25;;;;;23.24;52.68;101634.34;5002281;28;45419;-81
2021/07/23 00:24:29;;;;;;;;;18.00;16.00;;;;;23.24;53.00;101632.53;4983509;28;46503;-82
2021/07/23 00:26:55;;;;;;;;;19.00;14.50;;;;;23.21;52.95;101635.44;5001990;28;46217;-83
2021/07/23 00:29:20;;;;;;;;;17.50;14.25;;;;;23.15;53.24;101631.38;5001913;28;45284;-83
2021/07/23 00:31:46;;;;;;;;;17.75;14.00;;;;;23.13;52.83;101627.97;5002460;28;45881;-83
2021/07/23 00:34:11;;;;;;;;;14.00;11.50;;;;;23.09;53.43;101621.09;5001562;28;45360;-83
2021/07/23 00:36:37;;;;;;;;;16.75;15.75;;;;;23.10;53.19;101624.63;4984157;28;47232;-82
2021/07/23 00:39:02;;;;;;;;;17.25;16.00;;;;;23.08;53.72;101622.09;4984467;28;45357;-83
2021/07/23 00:41:27;;;;;;;;;15.75;13.75;;;;;23.07;53.92;101623.03;5002400;28;45530;-83
2021/07/23 00:43:53;;;;;;;;;16.00;15.75;;;;;23.03;53.76;101616.19;5000181;28;45527;-83
2021/07/23 00:46:18;;;;;;;;;15.00;14.75;;;;;22.98;53.42;101607.63;5001340;28;46519;-83
2021/07/23 00:48:43;;;;;;;;;16.00;13.00;;;;;22.96;53.93;101612.25;5001535;28;45344;-83
2021/07/23 00:51:09;;;;;;;;;19.75;18.00;;;;;22.94;54.07;101612.34;5001856;28;45333;-82
2021/07/23 00:53:34;;;;;;;;;18.00;14.75;;;;;22.92;53.64;101609.78;5001212;28;45372;-86
2021/07/23 00:56:00;;;;;;;;;16.50;14.25;;;;;22.95;53.87;101610.53;5001272;28;45302;-77
2021/07/23 00:58:30;;;;;;;;;16.00;14.50;;;;;22.94;53.64;101606.97;4992890;28;45270;-81
2021/07/23 01:00:58;;;;;;;;;18.00;15.75;;;;;22.92;53.80;101609.78;5001989;28;45391;-82
2021/07/23 01:03:24;;;;;;;;;16.50;15.50;;;;;22.91;54.18;101601.88;5001592;28;45516;-82
2021/07/23 01:05:51;;;;;;;;;18.25;14.50;;;;;22.89;54.07;101593.09;5001024;28;45514;-83
2021/07/23 01:08:17;;;;;;;;;15.50;14.25;;;;;22.86;54.00;101587.94;4984000;28;45611;-82
2021/07/23 01:10:43;;;;;;;;;18.00;16.50;;;;;22.81;53.67;101586.47;5001740;28;45279;-82
2021/07/23 01:13:09;;;;;;;;;14.75;14.25;;;;;22.82;54.25;101587.28;4983136;28;46480;-82
2021/07/23 01:15:35;;;;;;;;;17.25;14.75;;;;;22.75;54.42;101584.19;4988998;28;47035;-83
2021/07/23 01:18:00;;;;;;;;;19.00;16.25;;;;;22.73;54.37;101593.31;4983808;28;45427;-80
2021/07/23 01:20:27;;;;;;;;;16.50;13.25;;;;;22.67;54.94;101584.72;5001007;28;45411;-80
2021/07/23 01:23:00;;;;;;;;;18.50;14.25;;;;;22.66;55.08;101590.19;5001098;28;45455;-87
2021/07/23 01:25:27;;;;;;;;;17.50;13.75;;;;;22.62;55.01;101589.53;5001052;28;46265;-87
2021/07/23 01:27:54;;;;;;;;;16.00;13.75;;;;;22.57;55.00;101584.50;5001300;28;45627;-87
2021/07/23 01:30:21;;;;;;;;;16.75;15.50;;;;;22.52;55.08;101588.50;5001504;28;45242;-84
2021/07/23 01:32:47;;;;;;;;;15.50;13.75;;;;;22.52;55.58;101591.19;4983332;28;46110;-84
2021/07/23 01:35:12;;;;;;;;;21.25;16.50;;;;;22.52;55.48;101585.81;5000220;28;46272;-84
2021/07/23 01:37:42;;;;;;;;;19.50;14.00;;;;;22.51;55.92;101589.47;5001160;28;45416;-84
2021/07/23 01:40:08;;;;;;;;;14.00;13.00;;;;;22.40;55.52;101571.50;5001466;28;45297;-85
2021/07/23 01:42:36;;;;;;;;;18.50;14.75;;;;;22.39;55.70;101584.03;5000724;28;45261;-84
2021/07/23 01:45:02;;;;;;;;;13.00;12.75;;;;;22.35;55.28;101579.81;5000092;28;45478;-84
2021/07/23 01:47:27;;;;;;;;;17.25;16.50;;;;;22.31;55.14;101572.97;5000611;28;45564;-84
2021/07/23 01:49:53;;;;;;;;;18.50;16.50;;;;;22.25;55.00;101568.91;5001070;28;45298;-84
2021/07/23 01:52:18;;;;;;;;;17.25;14.00;;;;;22.21;56.14;101570.94;4999836;28;45423;-87
2021/07/23 01:54:44;;;;;;;;;15.00;13.25;;;;;22.12;55.96;101569.78;4999552;28;45493;-87
2021/07/23 01:57:09;;;;;;;;;16.25;15.00;;;;;22.14;55.94;101572.34;4982988;28;46376;-88
2021/07/23 01:59:35;;;;;;;;;18.25;15.00;;;;;22.19;56.30;101585.41;5001013;28;45447;-89
2021/07/23 02:02:01;;;;;;;;;14.25;13.50;;;;;22.18;55.77;101584.53;4982335;28;46427;-87
2021/07/23 02:04:27;;;;;;;;;18.00;13.75;;;;;22.19;55.92;101575.56;4982364;28;47356;-87
2021/07/23 02:06:52;;;;;;;;;19.00;19.00;;;;;22.13;55.91;101574.16;5000855;28;45427;-87
2021/07/23 02:09:18;;;;;;;;;19.50;17.75;;;;;22.08;56.39;101570.94;5000841;28;45411;-88
2021/07/23 02:11:43;;;;;;;;;14.50;13.75;;;;;22.10;56.08;101571.69;5000072;28;45365;-85
2021/07/23 02:14:09;;;;;;;;;14.50;14.50;;;;;22.04;56.61;101566.78;4979171;28;48250;-85
2021/07/23 02:16:35;;;;;;;;;17.50;16.00;;;;;22.08;55.86;101572.75;4979881;28;45350;-85
2021/07/23 02:19:01;;;;;;;;;16.75;13.75;;;;;22.02;55.86;101564.22;5000405;28;45241;-85
2021/07/23 02:21:26;;;;;;;;;17.25;16.50;;;;;22.01;56.33;101564.28;5000344;28;45551;-86
2021/07/23 02:23:51;;;;;;;;;16.75;15.25;;;;;21.98;56.63;101578.75;5000227;28;46358;-87
2021/07/23 02:26:18;;;;;;;;;18.00;14.75;;;;;21.95;56.46;101573.63;5000292;28;45207;-83
2021/07/23 02:28:44;;;;;;;;;16.25;14.75;;;;;21.87;56.79;101565.25;4999940;28;45507;-82
2021/07/23 02:31:10;;;;;;;;;18.00;15.75;;;;;21.84;57.00;101560.06;5000455;28;45474;-77
2021/07/23 02:33:35;;;;;;;;;17.00;16.75;;;;;21.89;57.07;101571.34;4999407;28;45359;-79
2021/07/23 02:36:01;;;;;;;;;18.25;16.75;;;;;21.84;56.30;101573.44;4999733;28;45408;-81
2021/07/23 02:38:26;;;;;;;;;19.25;15.75;;;;;21.84;56.84;101574.31;5000193;28;45314;-80
2021/07/23 02:40:54;;;;;;;;;15.75;12.00;;;;;21.77;56.66;101559.66;5000227;28;45284;-79
2021/07/23 02:43:20;;;;;;;;;13.25;12.50;;;;;21.75;57.44;101566.91;4999634;28;45268;-81
2021/07/23 02:45:45;;;;;;;;;19.25;18.00;;;;;21.74;57.50;101566.06;4982087;28;46091;-83
2021/07/23 02:48:11;;;;;;;;;20.75;17.00;;;;;21.72;57.40;101556.41;4999749;28;45269;-82
2021/07/23 02:50:36;;;;;;;;;19.75;16.25;;;;;21.70;57.23;101554.69;4999244;28;45205;-85
2021/07/23 02:53:03;;;;;;;;;18.50;17.25;;;;;21.70;57.29;101551.19;4999683;28;45435;-84
2021/07/23 02:55:28;;;;;;;;;21.50;17.75;;;;;21.65;57.99;101546.16;4999942;28;45289;-92
2021/07/23 02:57:53;;;;;;;;;18.50;15.75;;;;;21.61;57.91;101546.47;4999784;28;45226;-91
2021/07/23 03:00:19;;;;;;;;;18.00;18.00;;;;;21.57;57.46;101544.00;4999556;28;45406;-88
2021/07/23 03:02:44;;;;;;;;;20.75;17.25;;;;;21.59;57.80;101546.56;4999747;28;46401;-88
2021/07/23 03:05:10;;;;;;;;;20.00;16.75;;;;;21.58;57.57;101544.84;4999593;28;45453;-88
2021/07/23 03:07:35;;;;;;;;;16.75;16.25;;;;;21.52;57.76;101542.56;4999512;28;45333;-88
2021/07/23 03:10:01;;;;;;;;;19.00;17.00;;;;;21.45;58.22;101545.69;4999907;28;45293;-86
2021/07/23 03:12:26;;;;;;;;;21.25;16.75;;;;;21.42;58.51;101537.00;4999510;28;46181;-82
2021/07/23 03:14:51;;;;;;;;;17.75;14.50;;;;;21.41;58.24;101543.31;4999539;28;45258;-81
2021/07/23 03:17:17;;;;;;;;;18.25;16.00;;;;;21.42;57.80;101540.53;4999437;28;45499;-86
2021/07/23 03:19:42;;;;;;;;;18.75;17.50;;;;;21.41;58.58;101537.97;4981830;28;46369;-82
2021/07/23 03:22:08;;;;;;;;;23.25;17.50;;;;;21.44;58.53;101548.44;4999724;28;46319;-81
2021/07/23 03:24:34;;;;;;;;;21.25;18.50;;;;;21.41;58.73;101543.31;4999109;28;45325;-81
2021/07/23 03:26:59;;;;;;;;;18.25;16.50;;;;;21.39;58.30;101531.84;4999589;28;45281;-81
2021/07/23 03:29:25;;;;;;;;;17.50;17.50;;;;;21.38;58.68;101530.13;4998866;28;45236;-79
2021/07/23 03:31:50;;;;;;;;;16.00;15.00;;;;;21.35;58.96;101534.75;4999662;28;45306;-79
2021/07/23 03:34:16;;;;;;;;;19.75;18.25;;;;;21.29;58.61;101540.47;4999514;28;45222;-80
2021/07/23 03:36:41;;;;;;;;;20.00;16.75;;;;;21.27;58.69;101541.53;4998248;28;45433;-79
2021/07/23 03:39:06;;;;;;;;;20.50;15.50;;;;;21.23;58.78;101535.56;4999215;28;45407;-80
2021/07/23 03:41:32;;;;;;;;;19.00;18.50;;;;;21.19;59.32;101526.00;4999354;28;45296;-79
2021/07/23 03:43:57;;;;;;;;;18.00;17.75;;;;;21.18;59.24;101529.66;4981115;28;45923;-78
2021/07/23 03:46:22;;;;;;;;;18.75;17.50;;;;;21.12;58.97;101522.88;4999005;28;45381;-79
2021/07/23 03:48:48;;;;;;;;;18.50;18.50;;;;;21.09;59.33;101515.91;4999081;28;45277;-79
2021/07/23 03:51:13;;;;;;;;;18.25;17.25;;;;;21.08;59.44;101505.34;4998807;28;45229;-81
2021/07/23 03:53:38;;;;;;;;;19.75;18.50;;;;;21.02;59.91;101495.91;4999072;28;45288;-80
2021/07/23 03:56:05;;;;;;;;;21.00;18.75;;;;;21.01;60.41;101494.22;4998767;28;45247;-81
2021/07/23 03:58:30;;;;;;;;;22.50;16.75;;;;;20.96;59.94;101482.94;4998425;28;45439;-84
2021/07/23 04:00:56;;;;;;;;;20.25;17.00;;;;;20.93;60.23;101486.66;4978426;28;47347;-83
2021/07/23 04:03:21;;;;;;;;;20.00;16.00;;;;;20.90;60.41;101482.38;4962961;28;45362;-83
2021/07/23 04:05:47;;;;;;;;;23.75;17.25;;;;;20.91;59.86;101484.06;4998129;28;45398;-85
2021/07/23 04:08:12;;;;;;;;;20.25;19.25;;;;;20.91;60.20;101477.91;4998731;28;45487;-87
2021/07/23 04:10:37;;;;;;;;;18.00;16.25;;;;;20.87;59.99;101474.56;4981393;28;47194;-84
2021/07/23 04:13:03;;;;;;;;;18.50;14.50;;;;;20.87;59.86;101471.88;4977288;28;45359;-87
2021/07/23 04:15:28;;;;;;;;;20.75;19.50;;;;;20.90;60.30;101485.03;4989802;28;45455;-88
2021/07/23 04:17:53;;;;;;;;;20.25;17.25;;;;;20.82;60.06;101479.34;4999760;28;45468;-87
2021/07/23 04:20:19;;;;;;;;;21.00;16.50;;;;;20.79;60.80;101474.22;5001998;28;45713;-86
2021/07/23 04:22:44;;;;;;;;;18.00;17.75;;;;;20.83;60.55;101483.72;5001686;28;45295;-86
2021/07/23 04:25:11;;;;;;;;;16.75;16.75;;;;;20.85;60.40;101479.16;5002707;28;45426;-86
2021/07/23 04:27:37;;;;;;;;;20.50;17.75;;;;;20.81;60.35;101480.31;5001452;28;45617;-86
2021/07/23 04:30:06;;;;;;;;;20.50;19.25;;;;;20.85;61.26;101476.47;5001935;28;46337;-86
2021/07/23 04:32:31;;;;;;;;;17.75;17.75;;;;;20.82;60.21;101478.50;5002312;28;45333;-82
2021/07/23 04:34:56;;;;;;;;;20.00;18.00;;;;;20.78;60.71;101465.34;5001310;28;45416;-84
2021/07/23 04:37:22;;;;;;;;;21.50;18.00;;;;;20.78;60.57;101468.00;5001837;28;45669;-84
2021/07/23 04:39:47;;;;;;;;;18.50;16.50;;;;;20.79;60.61;101467.03;5001615;28;46301;-79
2021/07/23 04:42:12;;;;;;;;;19.75;19.00;;;;;;;;5002182;28;45317;-79
2021/07/23 04:44:37;;;;;;;;;23.33;19.67;;;;;20.81;60.66;101466.94;5001871;28;45440;-79
2021/07/23 04:47:03;;;;;;;;;18.75;18.00;;;;;20.82;60.35;101467.81;5000747;28;45297;-79
2021/07/23 04:49:28;;;;;;;;;19.25;18.00;;;;;20.78;60.42;101465.34;4999495;28;45472;-81
2021/07/23 04:51:54;;;;;;;;;20.25;18.25;;;;;20.83;60.44;101465.03;5001460;28;45473;-80
2021/07/23 04:54:20;;;;;;;;;19.25;19.00;;;;;20.82;60.74;101467.81;5002245;28;45286;-80
2021/07/23 04:56:48;;;;;;;;;20.25;18.00;;;;;20.79;60.30;101460.84;5009864;28;45288;-80
2021/07/23 04:59:13;;;;;;;;;22.25;19.75;;;;;20.78;60.76;101467.16;5001216;28;45475;-80
2021/07/23 05:01:39;;;;;;;;;21.25;18.50;;;;;20.76;60.88;101469.94;5001070;28;45183;-84
2021/07/23 05:04:04;;;;;;;;;21.50;20.25;;;;;20.74;60.92;101476.31;5001663;28;45644;-82
2021/07/23 05:06:29;;;;;;;;;23.00;19.00;;;;;20.70;61.23;101478.31;5001738;28;45516;-82
2021/07/23 05:08:55;;;;;;;;;20.25;19.25;;;;;20.65;61.32;101477.75;5001615;28;46367;-83
2021/07/23 05:11:21;;;;;;;;;15.50;15.25;;;;;20.61;61.45;101471.78;5001820;28;45292;-80
2021/07/23 05:13:46;;;;;;;;;22.50;20.00;;;;;20.59;61.67;101471.03;5001297;28;45444;-80
2021/07/23 05:16:12;;;;;;;;;22.75;18.25;;;;;20.57;61.72;101468.44;5000851;28;45456;-83
2021/07/23 05:18:39;;;;;;;;;24.00;19.25;;;;;20.57;61.68;101465.75;5001231;28;46534;-85
2021/07/23 05:21:06;;;;;;;;;26.25;20.75;;;;;20.58;62.02;101459.47;5001169;28;45689;-85
2021/07/23 05:23:33;;;;;;;;;23.25;20.25;;;;;20.63;61.42;101464.50;5001496;28;45179;-77
2021/07/23 05:25:59;;;;;;;;;21.00;20.75;;;;;20.62;61.72;101461.97;4999886;28;45801;-77
2021/07/23 05:28:26;;;;;;;;;18.00;16.00;;;;;20.61;61.58;101461.09;4999038;28;45586;-77
2021/07/23 05:30:51;;;;;;;;;22.75;18.75;;;;;20.60;61.72;101459.38;5000116;28;45479;-77
2021/07/23 05:33:17;;;;;;;;;21.75;18.75;;;;;20.63;61.51;101461.84;5001661;28;45322;-77
2021/07/23 05:35:42;;;;;;;;;22.50;20.75;;;;;20.63;61.20;101459.19;5000693;28;45491;-77
2021/07/23 05:38:14;;;;;;;;;22.75;20.00;;;;;20.66;61.61;101458.97;5000791;28;45396;-76
2021/07/23 05:40:41;;;;;;;;;21.50;19.25;;;;;20.65;61.44;101464.41;5000820;28;45513;-77
2021/07/23 05:43:08;;;;;;;;;21.75;21.00;;;;;20.69;61.20;101464.09;4981715;28;45340;-76
2021/07/23 05:45:36;;;;;;;;;28.00;21.25;;;;;20.72;61.40;101456.88;5000691;28;45520;-76
2021/07/23 05:48:01;;;;;;;;;23.50;19.75;;;;;20.74;61.44;101455.78;4984397;28;48207;-76
2021/07/23 05:50:27;;;;;;;;;21.00;19.75;;;;;20.75;61.41;101457.50;5001339;28;45409;-76
2021/07/23 05:52:52;;;;;;;;;24.50;17.25;;;;;20.75;61.49;101451.31;5000812;28;45479;-76
2021/07/23 05:55:17;;;;;;;;;21.75;18.75;;;;;20.79;62.14;101458.19;4983434;28;46266;-76
2021/07/23 05:57:43;;;;;;;;;22.25;19.50;;;;;20.83;61.24;101448.13;4999736;28;46430;-77
2021/07/23 06:00:09;;;;;;;;;25.00;19.50;;;;;20.85;61.52;101447.09;4995497;28;45142;-77
2021/07/23 06:02:34;;;;;;;;;24.00;20.75;;;;;20.87;61.32;101446.97;4982035;28;45301;-76
2021/07/23 06:05:00;;;;;;;;;28.50;23.00;;;;;20.82;61.43;101441.94;5000659;28;45347;-76
2021/07/23 06:07:25;;;;;;;;;23.50;22.50;;;;;20.90;60.91;101438.75;4999620;28;46103;-76
2021/07/23 06:09:50;;;;;;;;;26.00;20.75;;;;;20.96;61.43;101432.16;5000067;28;45322;-76
2021/07/23 06:12:16;;;;;;;;;26.25;22.50;;;;;21.00;61.01;101428.31;4979346;28;45447;-77
2021/07/23 06:14:41;;;;;;;;;23.25;22.50;;;;;21.00;61.25;101422.97;4976260;28;46353;-77
2021/07/23 06:17:06;;;;;;;;;24.25;19.75;;;;;21.03;61.00;101422.81;4998442;28;45366;-77
2021/07/23 06:19:32;;;;;;;;;21.00;18.75;;;;;21.08;61.01;101414.47;4982541;28;46332;-76
2021/07/23 06:21:57;;;;;;;;;26.25;20.75;;;;;21.11;60.92;101408.94;4999794;28;45499;-77
2021/07/23 06:24:22;;;;;;;;;26.75;23.00;;;;;21.17;60.58;101408.50;4997392;28;45566;-76
2021/07/23 06:26:49;;;;;;;;;21.25;20.25;;;;;21.24;60.81;101409.81;4999917;28;47454;-76
2021/07/23 06:29:14;;;;;;;;;22.50;21.00;;;;;21.27;60.70;101407.88;4981651;28;45485;-78
2021/07/23 06:31:39;;;;;;;;;28.25;23.00;;;;;21.31;60.50;101410.22;4986979;28;45438;-77
2021/07/23 06:34:05;;;;;;;;;19.25;19.25;;;;;21.39;60.64;101411.53;4999207;28;45273;-77
2021/07/23 06:36:33;;;;;;;;;21.50;19.00;;;;;21.46;60.67;101407.47;4982294;28;47162;-77
2021/07/23 06:38:59;;;;;;;;;18.50;17.00;;;;;21.52;59.89;101401.69;4999126;28;46184;-77
2021/07/23 06:41:25;;;;;;;;;23.00;18.75;;;;;21.52;60.20;101401.69;4991738;28;45451;-77
2021/07/23 06:43:50;;;;;;;;;17.00;15.25;;;;;21.56;59.69;101400.50;4999314;28;45440;-76
2021/07/23 06:46:16;;;;;;;;;21.75;19.75;;;;;21.59;59.65;101392.28;4981729;28;46272;-76
2021/07/23 06:48:41;;;;;;;;;21.50;19.75;;;;;21.66;59.65;101394.53;4982190;28;45365;-76
2021/07/23 06:51:07;;;;;;;;;23.00;20.75;;;;;21.76;59.96;101392.91;4999126;28;45746;-76
2021/07/23 06:53:32;;;;;;;;;21.00;18.50;;;;;21.89;60.06;101400.09;4999203;28;45475;-76
2021/07/23 06:55:58;;;;;;;;;25.00;19.25;;;;;22.00;58.92;101388.66;4981705;28;46866;-77
2021/07/23 06:58:23;;;;;;;;;34.75;28.25;;;;;22.09;58.81;101393.31;4999499;28;45366;-76
2021/07/23 07:00:48;;;;;;;;;37.25;31.25;;;;;22.13;58.37;101391.28;5000003;28;45481;-76
2021/07/23 07:03:14;;;;;;;;;38.75;29.00;;;;;22.19;58.44;101395.34;4999875;28;45289;-75
2021/07/23 07:05:39;;;;;;;;;40.50;26.50;;;;;22.25;58.38;101386.84;4998816;28;45262;-74
2021/07/23 07:08:05;;;;;;;;;18.25;17.25;;;;;22.30;58.27;101389.22;4999526;28;45275;-75
2021/07/23 07:10:30;;;;;;;;;20.25;19.50;;;;;22.35;57.72;101379.84;4999268;28;45455;-75
2021/07/23 07:12:57;;;;;;;;;23.75;22.00;;;;;22.38;58.24;101376.09;4999522;28;45443;-75
2021/07/23 07:15:23;;;;;;;;;23.50;23.00;;;;;22.45;58.15;101371.13;4997418;28;46194;-75
2021/07/23 07:17:57;;;;;;;;;25.75;23.25;;;;;22.50;57.45;101368.97;4981919;28;45321;-75
2021/07/23 07:20:22;;;;;;;;;22.75;20.75;;;;;22.56;57.68;101375.72;4982213;28;45258;-75
2021/07/23 07:22:48;;;;;;;;;23.75;20.75;;;;;22.59;56.95;101367.44;4999821;28;45404;-75
2021/07/23 07:25:13;;;;;;;;;21.75;20.75;;;;;22.61;57.30;101362.81;4978090;28;47002;-75
2021/07/23 07:27:38;;;;;;;;;24.00;21.75;;;;;22.65;57.29;101369.66;4994186;28;45316;-76
2021/07/23 07:30:04;;;;;;;;;26.00;24.00;;;;;22.70;57.74;101380.91;4999355;28;45238;-76
2021/07/23 07:32:30;;;;;;;;;25.75;24.25;;;;;22.74;57.13;101375.34;4999699;28;45568;-76
2021/07/23 07:34:55;;;;;;;;;21.75;19.75;;;;;22.77;56.45;101385.78;4998419;28;46189;-75
2021/07/23 07:37:20;;;;;;;;;22.00;20.00;;;;;22.78;57.10;101382.16;4981525;28;45637;-75
2021/07/23 07:39:46;;;;;;;;;20.75;20.25;;;;;22.81;56.52;101379.25;4999371;28;45351;-75
2021/07/23 15:45:51;;;;;;;;;18.50;17.50;;;;;27.98;43.45;100767.19;5756218;23;45987;-77
2021/07/23 15:48:16;;;;;;;;;19.00;14.75;;;;;28.01;43.68;100768.72;4978496;28;45278;-75
2021/07/23 15:50:42;;;;;;;;;16.75;16.25;;;;;28.01;43.48;100784.94;4978121;28;45415;-76
2021/07/23 15:53:07;;;;;;;;;17.75;16.75;;;;;28.02;43.12;100789.31;4976763;28;45484;-77
2021/07/23 15:55:33;;;;;;;;;23.75;18.75;;;;;28.00;43.77;100790.50;4979202;28;45200;-77
2021/07/23 15:57:58;;;;;;;;;21.75;21.50;;;;;27.97;43.80;100772.78;4979214;28;45320;-77
2021/07/23 16:00:24;;;;;;;;;20.00;16.25;;;;;28.00;43.65;100764.34;4979606;28;45448;-76
2021/07/23 16:02:57;;;;;;;;;19.25;16.75;;;;;28.01;43.05;100751.66;4978348;28;45283;-73
2021/07/23 16:05:23;;;;;;;;;19.50;18.50;;;;;28.05;43.38;100761.13;4979146;28;45455;-73
2021/07/23 16:07:50;;;;;;;;;17.75;16.75;;;;;28.04;43.67;100779.19;4978554;28;45478;-73
2021/07/23 16:10:16;;;;;;;;;17.00;14.75;;;;;28.07;43.46;100762.66;4979409;28;45297;-73
2021/07/23 16:12:42;;;;;;;;;18.25;16.50;;;;;28.02;43.26;100745.25;4978205;28;45463;-74
2021/07/23 16:15:08;;;;;;;;;19.75;19.75;;;;;27.93;43.14;100739.00;4982044;28;45551;-74
2021/07/23 16:17:34;;;;;;;;;19.00;18.00;;;;;27.83;42.64;100733.75;4981913;28;45623;-74
2021/07/23 16:20:01;;;;;;;;;19.75;19.75;;;;;27.79;42.77;100727.84;4982827;28;45242;-74
2021/07/23 16:22:26;;;;;;;;;22.00;17.75;;;;;27.72;40.99;100710.56;4969881;28;45611;-74
2021/07/23 16:24:51;;;;;;;;;17.75;16.50;;;;;27.74;43.51;100719.34;4981556;28;46454;-74
2021/07/23 16:27:17;;;;;;;;;18.25;16.25;;;;;27.64;41.96;100720.34;4982283;28;45397;-74
2021/07/23 16:29:42;;;;;;;;;19.00;18.25;;;;;27.66;42.79;100743.66;4982873;28;45147;-73
2021/07/23 16:32:08;;;;;;;;;20.50;17.75;;;;;27.66;43.02;100736.38;4981629;28;45221;-74
2021/07/23 16:34:34;;;;;;;;;21.25;21.25;;;;;27.64;43.72;100723.03;4982508;28;46489;-74
2021/07/23 16:37:00;;;;;;;;;18.50;18.00;;;;;27.49;44.94;100713.88;4982292;28;45238;-74
2021/07/23 16:39:25;;;;;;;;;18.50;17.50;;;;;27.38;43.22;100707.81;4982362;28;45265;-74
2021/07/23 16:41:51;;;;;;;;;19.75;17.50;;;;;27.37;43.08;100707.94;4981970;28;45200;-74
2021/07/23 16:44:16;;;;;;;;;18.50;16.50;;;;;27.41;43.42;100707.44;4982285;28;46338;-74
2021/07/23 16:46:41;;;;;;;;;21.25;18.50;;;;;27.39;44.16;100701.38;4982010;28;45608;-74
2021/07/23 16:49:07;;;;;;;;;20.50;16.50;;;;;27.29;43.57;100701.50;4982330;28;45305;-74
2021/07/23 16:51:32;;;;;;;;;19.50;19.00;;;;;27.24;42.39;100692.22;4981074;28;45431;-74
2021/07/23 16:53:57;;;;;;;;;19.50;17.25;;;;;27.24;43.18;100686.81;4981825;28;46399;-74
2021/07/23 16:56:23;;;;;;;;;17.75;16.00;;;;;27.26;41.78;100692.91;4982029;28;45400;-74
2021/07/23 16:58:48;;;;;;;;;15.25;15.00;;;;;27.26;43.17;100699.13;4981855;28;45254;-74
2021/07/23 17:01:14;;;;;;;;;18.75;17.75;;;;;27.19;41.85;100690.84;4976518;28;45382;-74
2021/07/23 17:03:39;;;;;;;;;19.00;16.50;;;;;27.16;44.00;100677.69;4982089;28;45326;-74
2021/07/23 17:06:04;;;;;;;;;18.75;18.75;;;;;27.18;42.99;100677.53;4981748;28;45306;-74
2021/07/23 17:08:30;;;;;;;;;21.75;19.75;;;;;27.22;43.32;100669.94;4981807;28;45348;-74
2021/07/23 17:10:55;;;;;;;;;18.50;15.00;;;;;27.19;42.61;100668.44;4981150;28;45407;-75
2021/07/23 17:13:27;;;;;;;;;17.25;16.25;;;;;27.22;42.52;100664.56;4964120;28;47240;-74
2021/07/23 17:15:54;;;;;;;;;19.50;17.50;;;;;27.26;42.71;100664.06;4962482;28;45310;-74
2021/07/23 17:18:22;;;;;;;;;17.25;16.50;;;;;27.30;43.19;100649.25;4982155;28;45349;-73
2021/07/23 17:20:48;;;;;;;;;16.25;16.00;;;;;27.24;43.13;100647.19;4963567;28;46155;-74
2021/07/23 17:23:14;;;;;;;;;17.00;16.00;;;;;27.12;43.38;100633.19;4980273;28;48348;-74
2021/07/23 17:25:39;;;;;;;;;18.75;16.75;;;;;27.08;43.58;100629.94;4981301;28;45228;-74
2021/07/23 17:28:05;;;;;;;;;15.75;15.00;;;;;27.04;43.22;100633.94;4973495;28;45310;-74
2021/07/23 17:30:30;;;;;;;;;15.00;13.50;;;;;27.07;43.54;100630.09;4963484;28;47530;-74
2021/07/23 17:32:55;;;;;;;;;15.75;15.00;;;;;27.09;43.74;100641.56;4963860;28;46990;-74
2021/07/23 17:35:21;;;;;;;;;17.00;13.25;;;;;27.10;42.97;100648.66;4963769;28;45838;-75
2021/07/23 17:37:46;;;;;;;;;19.25;17.00;;;;;27.11;43.70;100633.31;4981760;28;45470;-75
2021/07/23 17:40:11;;;;;;;;;17.75;15.00;;;;;27.02;43.72;100635.97;4980892;28;45503;-76
2021/07/23 17:42:43;;;;;;;;;16.75;14.75;;;;;27.00;43.93;100640.69;4980847;28;46369;-75
2021/07/23 17:45:23;;;;;;;;;16.25;15.50;;;;;26.96;43.31;100650.97;4980503;28;45541;-75
2021/07/23 17:47:50;;;;;;;;;19.25;16.25;;;;;26.96;44.09;100645.56;4978956;28;45440;-75
2021/07/23 17:50:17;;;;;;;;;17.00;14.25;;;;;26.94;44.03;100644.03;4971820;28;45314;-75
2021/07/23 17:52:42;;;;;;;;;20.00;18.75;;;;;26.87;43.78;100627.66;4981399;28;46325;-75
2021/07/23 17:55:09;;;;;;;;;22.00;22.00;;;;;26.89;44.27;100622.94;4969288;28;45444;-75
2021/07/23 17:57:35;;;;;;;;;19.50;19.00;;;;;26.84;44.52;100630.69;4981653;28;45238;-75
2021/07/23 18:00:03;;;;;;;;;22.75;19.25;;;;;26.80;43.53;100632.00;4963405;28;46544;-75
2021/07/23 18:02:28;;;;;;;;;23.00;19.50;;;;;26.80;43.91;100632.00;4978770;28;46192;-75
2021/07/23 18:04:53;;;;;;;;;20.50;18.75;;;;;26.79;44.92;100622.25;4984487;28;45264;-75
2021/07/23 18:07:21;;;;;;;;;24.50;21.00;;;;;26.83;44.58;100605.56;4982733;28;45471;-76
2021/07/23 18:10:00;;;;;;;;;20.50;18.25;;;;;26.78;44.90;100647.50;4970090;28;45951;-76
2021/07/23 18:12:25;;;;;;;;;23.25;22.25;;;;;26.71;47.16;100660.78;4970199;28;46323;-77
2021/07/23 18:14:50;;;;;;;;;24.75;24.75;;;;;26.67;48.65;100640.53;4973502;28;45523;-76
2021/07/23 18:17:16;;;;;;;;;23.25;21.00;;;;;26.66;49.54;100644.22;4977491;28;45236;-76
2021/07/23 18:19:41;;;;;;;;;25.00;19.50;;;;;26.61;48.02;100640.19;4980691;28;45622;-76
2021/07/23 18:22:06;;;;;;;;;18.50;16.50;;;;;26.61;47.58;100650.09;4980715;28;45339;-76
2021/07/23 18:24:32;;;;;;;;;23.75;22.25;;;;;26.57;50.12;100646.06;4970475;28;45352;-76
2021/07/23 18:26:57;;;;;;;;;25.00;23.75;;;;;26.54;48.34;100632.88;4991781;28;45310;-76
2021/07/23 18:29:22;;;;;;;;;21.00;19.25;;;;;26.50;47.82;100619.72;4983722;28;46075;-77
2021/07/23 18:31:48;;;;;;;;;20.75;19.75;;;;;26.49;47.33;100626.13;4973772;28;45513;-77
2021/07/23 18:34:13;;;;;;;;;24.25;20.75;;;;;26.48;47.00;100618.19;4980613;28;45352;-77
2021/07/23 18:36:39;;;;;;;;;22.75;19.75;;;;;26.47;47.23;100620.03;4979995;28;45444;-75
2021/07/23 18:39:04;;;;;;;;;18.75;17.75;;;;;26.46;46.93;100620.19;4974288;28;45960;-76
2021/07/23 18:41:29;;;;;;;;;17.00;17.00;;;;;26.46;45.77;100621.06;4991750;28;46549;-76
2021/07/23 18:43:55;;;;;;;;;21.75;19.25;;;;;26.44;46.21;100616.81;4987331;28;45446;-77
2021/07/23 18:46:20;;;;;;;;;18.00;16.50;;;;;26.41;49.64;100615.25;4975311;28;45328;-78
2021/07/23 18:48:46;;;;;;;;;22.25;17.25;;;;;26.35;47.52;100608.66;4980777;28;45381;-77
2021/07/23 18:51:13;;;;;;;;;19.75;18.50;;;;;26.33;47.21;100609.81;4980222;28;46311;-77
2021/07/23 18:53:39;;;;;;;;;21.50;19.00;;;;;26.29;46.93;100602.06;4981984;28;45786;-76
2021/07/23 18:56:04;;;;;;;;;19.75;18.75;;;;;26.25;47.19;100606.06;4990942;28;45226;-76
2021/07/23 18:58:29;;;;;;;;;16.00;15.00;;;;;26.24;46.61;100612.47;4981971;28;45494;-77
2021/07/23 19:00:55;;;;;;;;;19.50;19.00;;;;;26.23;47.50;100613.47;4981793;28;45368;-76
2021/07/23 19:03:20;;;;;;;;;20.25;14.25;;;;;26.22;46.94;100611.78;4979969;28;45266;-76
2021/07/23 19:05:46;;;;;;;;;17.00;16.50;;;;;26.20;47.15;100608.38;4979556;28;46041;-76